Time;durP1;ratioP1;P1;durP2;ratioP2;P2;SDS_P1;SDS_P2;PMS_P1;PMS_P2;Temp;Humidity;BMP_temperature;BMP_pressure;BME280_temperature;BME280_humidity;BME280_pressure;Samples;Min_cycle;Max_cycle;Signal;HPM_P1;HPM_P2
2022/02/18 00:01:01;;;;;;;8.50;2.20;;;7.00;89.20;;;;;;6154924;22;92579;-76
2022/02/18 00:03:28;;;;;;;13.38;2.70;;;6.90;89.10;;;;;;6155559;22;92392;-77
2022/02/18 00:05:57;;;;;;;13.75;2.38;;;6.90;89.20;;;;;;6153704;22;93357;-77
2022/02/18 00:08:25;;;;;;;17.42;2.97;;;6.90;89.50;;;;;;6155807;22;92884;-77
2022/02/18 00:10:52;;;;;;;13.98;2.38;;;6.90;89.30;;;;;;6154652;22;102563;-77
2022/02/18 00:13:20;;;;;;;18.60;3.00;;;6.90;89.20;;;;;;6155370;22;92388;-77
2022/02/18 00:15:47;;;;;;;12.55;3.13;;;6.90;89.20;;;;;;6127127;22;97261;-77
2022/02/18 00:18:14;;;;;;;13.90;2.20;;;6.80;89.40;;;;;;6153194;22;97901;-77
2022/02/18 00:20:41;;;;;;;10.98;2.28;;;6.80;89.20;;;;;;6155491;22;92458;-77
2022/02/18 00:23:09;;;;;;;13.65;2.50;;;6.80;89.40;;;;;;6128436;22;92415;-77
2022/02/18 00:25:38;;;;;;;13.88;2.83;;;6.80;89.40;;;;;;6128354;22;95790;-77
2022/02/18 00:28:06;;;;;;;11.52;2.60;;;6.70;89.40;;;;;;6152922;22;95482;-77
2022/02/18 00:30:33;;;;;;;16.90;2.45;;;6.70;89.60;;;;;;6155340;22;92286;-77
2022/02/18 00:32:59;;;;;;;19.88;2.53;;;6.70;89.50;;;;;;6153666;22;91719;-77
2022/02/18 00:35:27;;;;;;;15.13;3.03;;;6.70;89.60;;;;;;6153188;22;95871;-77
2022/02/18 00:37:57;;;;;;;12.05;2.60;;;6.70;89.70;;;;;;6154921;22;92953;-77
2022/02/18 00:40:25;;;;;;;12.90;2.58;;;6.60;89.90;;;;;;6127483;22;95233;-77
2022/02/18 00:42:54;;;;;;;11.25;2.60;;;6.60;90.10;;;;;;6153624;22;92517;-77
2022/02/18 00:45:23;;;;;;;13.65;2.83;;;6.60;90.00;;;;;;6153067;22;95705;-77
2022/02/18 00:47:51;;;;;;;15.07;2.20;;;6.60;90.00;;;;;;6153060;22;95437;-77
2022/02/18 00:50:19;;;;;;;8.73;2.30;;;6.50;90.00;;;;;;6155117;22;92425;-77
2022/02/18 00:52:46;;;;;;;11.90;2.50;;;6.50;90.00;;;;;;6128259;22;92498;-77
2022/02/18 00:55:14;;;;;;;10.18;2.33;;;6.40;90.00;;;;;;6152839;22;95848;-77
2022/02/18 00:57:42;;;;;;;15.55;2.50;;;6.40;90.00;;;;;;6153703;22;93041;-77
2022/02/18 01:00:11;;;;;;;13.52;2.17;;;6.40;90.00;;;;;;6153080;22;92415;-77
2022/02/18 01:02:38;;;;;;;14.88;2.50;;;6.40;90.10;;;;;;6152899;22;92598;-77
2022/02/18 01:05:05;;;;;;;12.52;2.40;;;6.30;90.40;;;;;;6151407;22;95667;-77
2022/02/18 01:07:32;;;;;;;18.15;2.80;;;6.30;90.20;;;;;;6154515;22;102771;-77
2022/02/18 01:09:59;;;;;;;12.73;2.92;;;6.30;90.30;;;;;;6152891;22;92514;-77
2022/02/18 01:12:26;;;;;;;14.85;2.60;;;6.30;90.40;;;;;;6128341;22;92479;-77
2022/02/18 01:14:53;;;;;;;11.05;2.28;;;6.30;90.40;;;;;;6154746;22;93193;-77
2022/02/18 01:17:20;;;;;;;9.70;2.40;;;6.30;90.40;;;;;;6152669;22;95407;-77
2022/02/18 01:19:48;;;;;;;14.63;2.88;;;6.30;90.50;;;;;;6128434;22;92439;-77
2022/02/18 01:22:15;;;;;;;15.05;2.50;;;6.30;90.50;;;;;;6153476;22;91725;-77
2022/02/18 01:24:43;;;;;;;13.38;2.15;;;6.30;90.50;;;;;;6154472;22;93098;-77
2022/02/18 01:27:10;;;;;;;11.18;2.28;;;6.30;90.50;;;;;;6152741;22;92970;-77
2022/02/18 01:29:39;;;;;;;13.38;2.40;;;6.20;90.50;;;;;;6176789;22;94979;-77
2022/02/18 01:32:11;;;;;;;10.98;2.10;;;6.20;90.60;;;;;;6154401;22;92455;-77
2022/02/18 01:34:40;;;;;;;9.25;1.90;;;6.20;90.50;;;;;;6153029;22;95766;-77
2022/02/18 01:37:08;;;;;;;12.43;2.15;;;6.20;90.50;;;;;;6152225;22;95459;-77
2022/02/18 01:39:35;;;;;;;12.82;2.10;;;6.10;90.50;;;;;;6154341;22;92420;-77
2022/02/18 01:42:03;;;;;;;10.05;2.10;;;6.10;90.60;;;;;;6128849;22;92548;-77
2022/02/18 01:44:33;;;;;;;12.80;2.30;;;6.10;90.70;;;;;;6154001;22;95617;-77
2022/02/18 01:47:00;;;;;;;11.95;2.40;;;6.00;90.70;;;;;;6154651;22;94611;-77
2022/02/18 01:49:27;;;;;;;15.30;2.00;;;6.00;90.80;;;;;;6154145;22;92730;-77
2022/02/18 01:51:55;;;;;;;7.82;1.98;;;6.00;90.90;;;;;;6129517;22;92449;-77
2022/02/18 01:54:22;;;;;;;11.15;1.98;;;6.00;90.90;;;;;;6152478;22;95661;-77
2022/02/18 01:56:49;;;;;;;14.25;2.13;;;6.00;91.00;;;;;;6153862;22;97823;-77
2022/02/18 01:59:16;;;;;;;11.32;2.00;;;5.90;90.90;;;;;;6154136;22;92424;-77
2022/02/18 02:01:43;;;;;;;12.85;1.98;;;5.90;91.00;;;;;;6153933;22;92566;-77
2022/02/18 02:04:11;;;;;;;10.88;2.00;;;5.90;91.00;;;;;;6128824;22;95626;-77
2022/02/18 02:06:38;;;;;;;14.73;2.67;;;5.90;91.00;;;;;;6154017;22;95648;-77
2022/02/18 02:09:06;;;;;;;9.98;3.33;;;5.90;91.00;;;;;;6154031;22;92371;-77
2022/02/18 02:11:33;;;;;;;11.95;1.98;;;5.90;91.10;;;;;;6130040;22;91744;-77
2022/02/18 02:14:05;;;;;;;12.75;2.40;;;5.90;91.20;;;;;;6153968;22;95768;-77
2022/02/18 02:16:32;;;;;;;10.02;1.75;;;5.90;91.10;;;;;;6153753;22;95210;-77
2022/02/18 02:18:59;;;;;;;7.22;1.83;;;5.80;91.10;;;;;;6152834;22;95202;-77
2022/02/18 02:21:26;;;;;;;15.55;2.80;;;5.80;91.10;;;;;;6129197;22;92459;-77
2022/02/18 02:23:54;;;;;;;8.98;2.20;;;5.80;91.10;;;;;;6153923;22;95394;-77
2022/02/18 02:26:28;;;;;;;11.43;1.65;;;5.80;91.10;;;;;;6153941;22;94992;-77
2022/02/18 02:28:57;;;;;;;12.63;2.10;;;5.70;91.10;;;;;;6154692;22;92903;-77
2022/02/18 02:31:25;;;;;;;14.48;2.30;;;5.70;91.10;;;;;;6153696;22;92496;-77
2022/02/18 02:33:54;;;;;;;14.27;2.20;;;5.70;91.10;;;;;;6153733;22;95080;-77
2022/02/18 02:36:22;;;;;;;9.13;1.98;;;5.70;91.20;;;;;;6129477;22;95557;-77
2022/02/18 02:38:51;;;;;;;8.32;1.95;;;5.70;91.20;;;;;;6154224;22;92430;-76
2022/02/18 02:41:18;;;;;;;10.07;2.30;;;5.70;91.20;;;;;;6128837;22;92436;-77
2022/02/18 02:43:46;;;;;;;10.40;3.03;;;5.70;91.20;;;;;;6127726;22;97633;-77
2022/02/18 02:46:13;;;;;;;11.68;1.88;;;5.60;91.20;;;;;;6153624;22;97685;-77
2022/02/18 02:48:40;;;;;;;17.98;2.42;;;5.70;91.40;;;;;;6129423;22;92457;-77
2022/02/18 02:51:30;;;;;;;9.65;2.05;;;5.70;91.40;;;;;;6152950;22;92478;-76
2022/02/18 02:53:57;;;;;;;13.02;1.80;;;5.70;91.30;;;;;;6153835;22;95424;-77
2022/02/18 02:56:25;;;;;;;11.85;2.20;;;5.70;91.50;;;;;;6153416;22;95592;-77
2022/02/18 02:58:52;;;;;;;21.08;2.58;;;5.70;91.50;;;;;;6129531;22;92613;-77
2022/02/18 03:01:28;;;;;;;9.18;2.00;;;5.80;91.50;;;;;;6130859;22;91737;-76
2022/02/18 03:03:55;;;;;;;12.02;2.05;;;5.80;91.40;;;;;;6154093;22;95285;-77
2022/02/18 03:06:23;;;;;;;11.30;2.33;;;5.80;91.20;;;;;;6153622;22;95351;-76
2022/02/18 03:08:52;;;;;;;14.00;2.42;;;5.90;91.30;;;;;;6152431;22;95033;-76
2022/02/18 03:11:24;;;;;;;8.27;2.42;;;5.90;91.40;;;;;;6130349;22;92465;-77
2022/02/18 03:14:25;;;;;;;13.40;2.90;;;5.90;91.30;;;;;;6121024;22;92529;-77
2022/02/18 03:17:01;;;;;;;10.70;2.15;;;5.90;91.30;;;;;;6153843;22;95330;-77
2022/02/18 03:19:28;;;;;;;10.15;2.22;;;6.00;91.20;;;;;;6155604;22;92843;-77
2022/02/18 03:21:57;;;;;;;12.45;2.58;;;6.10;91.10;;;;;;6129427;22;92502;-77
2022/02/18 03:24:24;;;;;;;10.57;2.80;;;6.10;91.00;;;;;;6153277;22;96080;-76
2022/02/18 03:26:53;;;;;;;9.73;2.13;;;6.10;90.90;;;;;;6129383;22;95279;-77
2022/02/18 03:29:25;;;;;;;9.68;1.83;;;6.10;90.90;;;;;;6129289;22;92567;-76
2022/02/18 03:32:18;;;;;;;9.38;1.92;;;6.20;90.90;;;;;;6131654;22;92469;-76
2022/02/18 03:34:45;;;;;;;12.85;2.40;;;6.20;90.80;;;;;;6152024;22;98094;-77
2022/02/18 03:37:12;;;;;;;7.75;2.20;;;6.20;90.90;;;;;;6153606;22;97852;-77
2022/02/18 03:39:39;;;;;;;9.15;1.70;;;6.20;90.90;;;;;;6153628;22;92499;-77
2022/02/18 03:42:08;;;;;;;9.93;1.95;;;6.20;90.80;;;;;;6153709;22;93074;-77
2022/02/18 03:44:35;;;;;;;9.48;2.00;;;6.30;90.80;;;;;;6153185;22;94287;-77
2022/02/18 03:47:05;;;;;;;13.55;2.38;;;6.30;90.70;;;;;;6129533;22;95290;-76
2022/02/18 03:49:33;;;;;;;9.13;2.42;;;6.30;90.70;;;;;;6129131;22;92810;-76
2022/02/18 03:52:03;;;;;;;10.95;2.00;;;6.30;90.60;;;;;;6129593;22;91656;-76
2022/02/18 03:54:30;;;;;;;8.18;1.73;;;6.40;90.60;;;;;;6128622;22;95433;-76
2022/02/18 03:56:57;;;;;;;9.57;2.00;;;6.30;90.80;;;;;;6153551;22;94277;-77
2022/02/18 03:59:27;;;;;;;8.15;1.88;;;6.40;90.50;;;;;;6128150;22;94945;-77
2022/02/18 04:01:56;;;;;;;8.57;1.88;;;6.40;90.50;;;;;;6153276;22;92486;-76
2022/02/18 04:04:23;;;;;;;6.03;2.03;;;6.40;90.40;;;;;;6152762;22;95059;-76
2022/02/18 04:07:07;;;;;;;8.55;1.80;;;6.50;90.40;;;;;;6153286;22;94851;-76
2022/02/18 04:09:43;;;;;;;13.18;2.50;;;6.50;90.40;;;;;;6153652;22;92331;-76
2022/02/18 04:12:18;;;;;;;5.80;1.85;;;6.60;90.40;;;;;;6130757;22;92473;-77
2022/02/18 04:14:47;;;;;;;5.18;3.00;;;6.60;90.30;;;;;;6153246;22;95110;-77
2022/02/18 04:17:17;;;;;;;12.70;2.55;;;6.70;90.20;;;;;;6129435;22;95232;-77
2022/02/18 04:19:50;;;;;;;9.98;1.70;;;6.70;90.20;;;;;;6153628;22;92438;-76
2022/02/18 04:22:46;;;;;;;7.55;1.70;;;6.70;90.10;;;;;;6134339;22;92449;-76
2022/02/18 04:25:18;;;;;;;8.75;2.17;;;6.80;90.10;;;;;;6151717;22;97495;-76
2022/02/18 04:27:57;;;;;;;8.20;1.77;;;6.80;90.00;;;;;;6152769;22;96315;-77
2022/02/18 04:30:24;;;;;;;9.45;2.10;;;6.90;90.00;;;;;;6153561;22;92359;-77
2022/02/18 04:32:51;;;;;;;14.73;2.90;;;6.80;89.80;;;;;;6153928;22;92771;-77
2022/02/18 04:35:20;;;;;;;11.25;2.42;;;6.80;89.80;;;;;;6155053;22;93341;-76
2022/02/18 04:37:47;;;;;;;7.72;1.75;;;6.90;89.70;;;;;;6152794;22;95454;-76
2022/02/18 04:40:16;;;;;;;11.05;2.10;;;6.90;89.90;;;;;;6155304;22;92401;-76
2022/02/18 04:42:44;;;;;;;9.10;2.50;;;6.90;89.90;;;;;;6155370;22;91666;-77
2022/02/18 04:45:12;;;;;;;11.63;2.50;;;6.90;90.00;;;;;;6155111;22;93353;-77
2022/02/18 04:47:41;;;;;;;15.65;2.25;;;7.00;90.10;;;;;;6128139;22;95971;-77
2022/02/18 04:50:09;;;;;;;10.32;2.30;;;7.00;90.10;;;;;;6151860;22;94826;-77
2022/02/18 04:52:36;;;;;;;11.10;2.15;;;7.00;90.10;;;;;;6128407;22;92551;-76
2022/02/18 04:55:06;;;;;;;11.55;2.45;;;7.00;90.20;;;;;;6153416;22;93683;-77
2022/02/18 04:57:34;;;;;;;11.85;2.40;;;7.10;90.20;;;;;;6152962;22;93045;-77
2022/02/18 05:00:03;;;;;;;10.85;3.42;;;7.10;90.10;;;;;;6153575;22;92401;-77
2022/02/18 05:02:30;;;;;;;9.20;2.85;;;7.10;90.10;;;;;;6154826;22;92839;-77
2022/02/18 05:04:59;;;;;;;17.67;3.75;;;7.20;90.20;;;;;;6153287;22;93259;-77
2022/02/18 05:07:26;;;;;;;18.95;3.80;;;7.20;90.40;;;;;;6153662;22;92833;-76
2022/02/18 05:09:52;;;;;;;16.83;3.00;;;7.30;90.20;;;;;;6154795;22;92422;-77
2022/02/18 05:12:19;;;;;;;10.93;3.63;;;7.30;90.20;;;;;;6153288;22;92427;-77
2022/02/18 05:14:48;;;;;;;19.15;3.83;;;7.40;90.30;;;;;;6152563;22;108979;-77
2022/02/18 05:17:15;;;;;;;15.75;2.78;;;7.40;90.30;;;;;;6154033;22;98107;-76
2022/02/18 05:19:42;;;;;;;15.75;3.50;;;7.40;90.30;;;;;;6154573;22;92524;-77
2022/02/18 05:22:09;;;;;;;17.58;3.25;;;7.40;90.40;;;;;;6154469;22;92436;-76
2022/02/18 05:24:37;;;;;;;12.35;3.35;;;7.40;90.40;;;;;;6155766;22;93170;-77
2022/02/18 05:27:05;;;;;;;16.05;3.65;;;7.50;90.50;;;;;;6155939;22;92943;-76
2022/02/18 05:29:33;;;;;;;17.33;3.08;;;7.50;90.40;;;;;;6154483;22;92503;-77
2022/02/18 05:32:00;;;;;;;12.98;3.85;;;7.50;90.60;;;;;;6156279;22;101528;-77
2022/02/18 05:34:27;;;;;;;18.85;4.47;;;7.50;90.60;;;;;;6155950;22;92326;-77
2022/02/18 05:36:54;;;;;;;22.15;4.13;;;7.50;90.80;;;;;;6154044;22;93032;-76
2022/02/18 05:39:21;;;;;;;15.27;3.20;;;7.50;90.90;;;;;;6153231;22;94824;-77
2022/02/18 05:41:50;;;;;;;15.82;3.67;;;7.60;91.00;;;;;;6154133;22;92511;-77
2022/02/18 05:44:18;;;;;;;13.02;3.55;;;7.60;91.00;;;;;;6155841;22;93166;-77
2022/02/18 05:46:45;;;;;;;15.85;3.78;;;7.60;91.10;;;;;;6155815;22;93055;-76
2022/02/18 05:49:12;;;;;;;20.25;3.63;;;7.60;91.10;;;;;;6156112;22;92419;-76
2022/02/18 05:51:39;;;;;;;14.32;3.60;;;7.60;91.10;;;;;;6154017;22;92550;-77
2022/02/18 05:54:06;;;;;;;20.15;4.70;;;7.60;91.30;;;;;;6155655;22;98360;-76
2022/02/18 05:56:34;;;;;;;23.67;4.25;;;7.60;91.20;;;;;;6154440;22;96432;-77
2022/02/18 05:59:02;;;;;;;19.70;5.15;;;7.70;91.20;;;;;;6154472;22;92490;-77
2022/02/18 06:01:29;;;;;;;18.40;4.28;;;7.70;91.20;;;;;;6156078;22;92418;-76
2022/02/18 06:03:58;;;;;;;20.52;4.03;;;7.70;91.30;;;;;;6152507;22;96397;-76
2022/02/18 06:06:27;;;;;;;19.35;4.22;;;7.70;91.30;;;;;;6155652;22;95429;-77
2022/02/18 06:08:54;;;;;;;14.93;3.80;;;7.70;91.30;;;;;;6155744;22;92345;-76
2022/02/18 06:11:21;;;;;;;14.82;3.38;;;7.70;91.30;;;;;;6155959;22;92377;-76
2022/02/18 06:13:47;;;;;;;20.63;4.30;;;7.70;91.30;;;;;;6155605;22;93247;-76
2022/02/18 06:16:14;;;;;;;18.92;4.38;;;7.70;91.40;;;;;;6129064;22;95505;-76
2022/02/18 06:18:41;;;;;;;14.60;4.10;;;7.70;91.40;;;;;;6154115;22;92473;-76
2022/02/18 06:21:08;;;;;;;13.45;4.28;;;7.70;91.40;;;;;;6179461;22;102394;-76
2022/02/18 06:23:35;;;;;;;17.13;4.22;;;7.70;91.40;;;;;;6155701;22;93177;-76
2022/02/18 06:26:02;;;;;;;15.88;4.97;;;7.70;91.30;;;;;;6129039;22;93188;-76
2022/02/18 06:28:29;;;;;;;13.60;5.13;;;7.70;91.20;;;;;;6154564;22;94785;-76
2022/02/18 06:30:56;;;;;;;20.98;5.13;;;7.60;91.20;;;;;;6154099;22;92437;-76
2022/02/18 06:33:23;;;;;;;17.35;5.05;;;7.60;91.30;;;;;;6155722;22;93253;-77
2022/02/18 06:35:50;;;;;;;15.60;4.07;;;7.60;91.30;;;;;;6153658;22;95348;-77
2022/02/18 06:38:18;;;;;;;20.75;5.07;;;7.50;91.50;;;;;;6129324;22;92390;-76
2022/02/18 06:40:46;;;;;;;19.95;5.00;;;7.40;91.80;;;;;;6129299;22;92574;-76
2022/02/18 06:43:13;;;;;;;17.33;4.85;;;7.40;91.80;;;;;;6155748;22;93117;-76
2022/02/18 06:45:40;;;;;;;20.35;4.68;;;7.40;91.90;;;;;;6154503;22;95660;-76
2022/02/18 06:48:09;;;;;;;21.92;5.68;;;7.40;92.10;;;;;;6154010;22;92588;-76
2022/02/18 06:50:36;;;;;;;18.25;5.13;;;7.40;92.00;;;;;;6153896;22;98589;-76
2022/02/18 06:53:05;;;;;;;19.92;5.05;;;7.40;91.90;;;;;;6152317;22;95646;-71
2022/02/18 06:55:32;;;;;;;16.88;5.78;;;7.40;92.00;;;;;;6155377;22;95720;-71
2022/02/18 06:58:01;;;;;;;20.75;6.53;;;7.30;92.20;;;;;;6153511;22;92529;-71
2022/02/18 07:00:28;;;;;;;18.98;7.40;;;7.30;92.20;;;;;;6154778;22;92526;-71
2022/02/18 07:02:55;;;;;;;17.15;6.25;;;7.30;92.30;;;;;;6154091;22;92738;-70
2022/02/18 07:05:23;;;;;;;22.23;5.97;;;7.40;92.40;;;;;;6153273;22;92990;-70
2022/02/18 07:07:50;;;;;;;25.13;7.85;;;7.40;92.20;;;;;;6153981;22;92590;-70
2022/02/18 07:10:18;;;;;;;14.45;6.18;;;7.40;92.30;;;;;;6156130;22;91656;-71
2022/02/18 07:12:45;;;;;;;13.45;6.07;;;7.40;92.30;;;;;;6153639;22;93279;-71
2022/02/18 07:15:12;;;;;;;19.80;6.35;;;7.40;92.30;;;;;;6153753;22;95513;-71
2022/02/18 07:17:40;;;;;;;16.92;5.78;;;7.50;92.40;;;;;;6127501;22;94877;-71
2022/02/18 07:20:09;;;;;;;20.58;6.32;;;7.50;92.40;;;;;;6153855;22;92448;-71
2022/02/18 07:22:37;;;;;;;14.38;6.70;;;7.50;92.30;;;;;;6153392;22;95784;-71
2022/02/18 07:25:11;;;;;;;11.48;6.93;;;7.50;92.40;;;;;;6129916;22;95507;-71
2022/02/18 07:27:38;;;;;;;19.13;6.10;;;7.60;92.50;;;;;;6154240;22;92415;-70
2022/02/18 07:30:06;;;;;;;25.35;6.82;;;7.60;92.20;;;;;;6153747;22;92507;-71
2022/02/18 07:32:33;;;;;;;21.13;6.28;;;7.70;92.40;;;;;;6155279;22;94010;-71
2022/02/18 07:35:01;;;;;;;21.02;7.57;;;7.70;92.20;;;;;;6153874;22;95476;-70
2022/02/18 07:37:27;;;;;;;80.65;64.18;;;7.70;92.40;;;;;;6154692;22;92331;-71
2022/02/18 07:39:54;;;;;;;28.55;15.50;;;7.70;92.30;;;;;;6153158;22;92910;-71
2022/02/18 07:42:21;;;;;;;21.55;13.35;;;7.70;92.50;;;;;;6153149;22;95452;-71
2022/02/18 07:44:49;;;;;;;29.58;12.75;;;7.70;92.30;;;;;;6152566;22;97960;-71
2022/02/18 07:47:16;;;;;;;28.13;11.50;;;7.70;92.20;;;;;;6153438;22;92435;-71
2022/02/18 07:49:48;;;;;;;22.88;14.30;;;7.80;92.40;;;;;;6153274;22;92581;-70
2022/02/18 07:52:15;;;;;;;29.95;17.45;;;7.80;92.30;;;;;;6153163;22;93187;-71
2022/02/18 07:54:43;;;;;;;20.40;8.85;;;7.80;92.30;;;;;;6154646;22;93051;-70
2022/02/18 07:57:10;;;;;;;17.92;6.78;;;7.80;92.20;;;;;;6155287;22;92835;-71
2022/02/18 07:59:37;;;;;;;23.25;7.70;;;7.80;92.30;;;;;;6155851;22;91707;-70
2022/02/18 08:02:05;;;;;;;21.10;9.52;;;7.80;92.50;;;;;;6152397;22;100841;-70
2022/02/18 08:04:33;;;;;;;19.40;8.93;;;7.90;92.40;;;;;;6153603;22;92995;-70
2022/02/18 08:07:03;;;;;;;19.48;6.97;;;7.90;92.40;;;;;;6153653;22;94849;-71
2022/02/18 08:09:33;;;;;;;22.90;7.50;;;8.00;92.60;;;;;;6153878;22;92415;-71
2022/02/18 08:12:00;;;;;;;22.27;5.40;;;8.00;92.40;;;;;;6153445;22;93204;-71
2022/02/18 08:14:27;;;;;;;17.67;7.50;;;8.00;92.40;;;;;;6128639;22;94101;-71
2022/02/18 08:16:54;;;;;;;27.98;6.53;;;8.00;92.30;;;;;;6153798;22;92418;-71
2022/02/18 08:19:23;;;;;;;25.60;5.85;;;8.10;92.20;;;;;;6153864;22;92822;-71
2022/02/18 08:21:51;;;;;;;18.35;6.55;;;8.10;92.20;;;;;;6155408;22;93048;-71
2022/02/18 08:24:19;;;;;;;21.20;6.00;;;8.10;92.00;;;;;;6154313;22;92931;-71
2022/02/18 08:26:48;;;;;;;18.83;5.32;;;8.10;92.10;;;;;;6155323;22;92334;-71
2022/02/18 08:29:16;;;;;;;17.50;4.78;;;8.20;92.30;;;;;;6153525;22;92512;-71
2022/02/18 08:31:44;;;;;;;21.23;6.15;;;8.20;92.20;;;;;;6126787;22;96789;-70
2022/02/18 08:34:11;;;;;;;21.80;5.07;;;8.20;92.20;;;;;;6154112;22;106011;-71
2022/02/18 08:36:38;;;;;;;20.52;6.00;;;8.20;92.40;;;;;;6155265;22;92310;-71
2022/02/18 08:39:07;;;;;;;24.98;7.35;;;8.20;92.80;;;;;;6153305;22;92562;-71
2022/02/18 08:41:35;;;;;;;25.67;6.78;;;8.20;92.80;;;;;;6155070;22;93169;-71
2022/02/18 08:44:04;;;;;;;17.40;5.20;;;8.20;92.80;;;;;;6154643;22;92838;-70
2022/02/18 08:46:32;;;;;;;305.10;45.35;;;8.20;93.00;;;;;;6153434;22;92463;-73
2022/02/18 08:48:59;;;;;;;17.60;7.43;;;8.30;93.30;;;;;;6138738;22;92028;-72
2022/02/18 08:51:26;;;;;;;21.73;8.70;;;8.30;93.10;;;;;;6131953;22;95867;-71
2022/02/18 08:53:53;;;;;;;27.20;5.82;;;8.30;93.10;;;;;;6133313;22;92872;-71
2022/02/18 08:56:21;;;;;;;27.77;7.28;;;8.30;93.10;;;;;;6106585;22;94855;-72
2022/02/18 08:58:49;;;;;;;16.33;5.38;;;8.30;93.30;;;;;;6132791;22;93303;-72
2022/02/18 09:01:16;;;;;;;26.08;7.90;;;8.20;93.20;;;;;;6133713;22;93206;-72
2022/02/18 09:03:43;;;;;;;17.15;6.13;;;8.30;93.50;;;;;;6106770;22;95550;-72
2022/02/18 09:06:10;;;;;;;35.08;13.93;;;8.40;93.20;;;;;;6134498;22;93395;-71
2022/02/18 09:08:37;;;;;;;32.83;14.10;;;8.30;93.30;;;;;;6131754;22;92517;-72
2022/02/18 09:11:04;;;;;;;23.88;12.13;;;8.40;93.40;;;;;;6131759;22;93101;-72
2022/02/18 09:13:32;;;;;;;25.73;9.70;;;8.40;93.40;;;;;;6132254;22;93067;-72
2022/02/18 09:15:59;;;;;;;22.63;9.57;;;8.40;93.30;;;;;;6133910;22;92407;-72
2022/02/18 09:18:35;;;;;;;23.05;10.18;;;8.30;93.40;;;;;;6133878;22;92436;-72
2022/02/18 09:21:02;;;;;;;18.35;9.95;;;8.30;93.50;;;;;;6104211;22;95614;-71
2022/02/18 09:23:49;;;;;;;18.25;8.60;;;8.30;93.50;;;;;;6133345;22;95278;-72
2022/02/18 09:26:17;;;;;;;19.05;9.98;;;8.40;93.70;;;;;;6133388;22;92351;-72
2022/02/18 09:28:44;;;;;;;17.17;7.80;;;8.40;93.90;;;;;;6132377;22;93228;-72
2022/02/18 09:31:12;;;;;;;20.15;10.07;;;8.50;93.80;;;;;;6107228;22;95985;-72
2022/02/18 09:33:39;;;;;;;15.25;7.95;;;8.50;93.90;;;;;;6132705;22;92907;-72
2022/02/18 09:36:07;;;;;;;16.65;9.35;;;8.50;93.80;;;;;;6105914;22;96851;-72
2022/02/18 09:38:36;;;;;;;18.88;8.45;;;8.60;93.90;;;;;;6132565;22;92520;-72
2022/02/18 09:41:07;;;;;;;18.23;9.43;;;8.60;94.00;;;;;;6132999;22;93371;-72
2022/02/18 09:43:39;;;;;;;20.85;8.93;;;8.60;93.90;;;;;;6132803;22;96187;-72
2022/02/18 09:46:07;;;;;;;19.00;7.87;;;8.70;94.00;;;;;;6130943;22;96026;-72
2022/02/18 09:48:37;;;;;;;15.10;8.30;;;8.70;93.80;;;;;;6132255;22;92802;-72
2022/02/18 09:51:05;;;;;;;18.05;8.32;;;8.80;93.70;;;;;;6131071;22;95747;-72
2022/02/18 09:53:34;;;;;;;14.10;7.28;;;8.90;93.50;;;;;;6107046;22;95447;-76
2022/02/18 09:56:06;;;;;;;12.75;6.90;;;9.00;93.30;;;;;;6107774;22;93471;-77
2022/02/18 09:58:35;;;;;;;9.95;6.53;;;9.10;93.30;;;;;;6107747;22;92779;-78
2022/02/18 10:01:03;;;;;;;10.10;7.07;;;9.20;93.30;;;;;;6131554;22;95910;-77
2022/02/18 10:03:30;;;;;;;11.85;8.00;;;9.30;93.30;;;;;;6132050;22;92899;-75
2022/02/18 10:05:58;;;;;;;11.88;7.38;;;9.40;93.20;;;;;;6130912;22;92448;-76
2022/02/18 10:08:26;;;;;;;12.70;6.20;;;9.40;92.90;;;;;;6132117;22;92562;-77
2022/02/18 10:11:01;;;;;;;13.20;5.78;;;9.50;92.80;;;;;;6105615;22;98304;-78
2022/02/18 10:13:38;;;;;;;12.20;5.95;;;9.60;92.90;;;;;;6132327;22;97537;-72
2022/02/18 10:16:21;;;;;;;10.07;4.28;;;9.70;92.70;;;;;;6133386;22;93216;-71
2022/02/18 10:18:58;;;;;;;15.48;5.13;;;9.70;92.80;;;;;;6133730;22;92948;-72
2022/02/18 10:21:32;;;;;;;10.55;4.90;;;9.80;92.80;;;;;;6130616;22;93272;-71
2022/02/18 10:24:15;;;;;;;11.95;4.85;;;9.90;92.70;;;;;;6133034;22;95499;-71
2022/02/18 10:26:48;;;;;;;10.63;5.03;;;10.00;92.70;;;;;;6132519;22;93350;-73
2022/02/18 10:29:28;;;;;;;12.02;4.68;;;10.10;92.80;;;;;;6132073;22;91704;-73
2022/02/18 10:32:15;;;;;;;10.88;4.20;;;10.20;92.70;;;;;;6132034;22;93612;-72
2022/02/18 10:34:57;;;;;;;11.52;4.10;;;10.30;92.50;;;;;;6133003;22;93368;-72
2022/02/18 10:37:27;;;;;;;16.25;5.22;;;10.40;92.40;;;;;;6130380;22;95693;-73
2022/02/18 10:40:08;;;;;;;22.80;4.85;;;10.40;92.50;;;;;;6107838;22;93329;-72
2022/02/18 10:42:36;;;;;;;10.90;4.53;;;10.50;92.60;;;;;;6132563;22;93983;-74
2022/02/18 10:45:11;;;;;;;20.75;5.20;;;10.50;92.50;;;;;;6131647;22;98820;-75
2022/02/18 10:47:40;;;;;;;13.10;4.57;;;10.60;92.60;;;;;;6132702;22;94085;-72
2022/02/18 10:50:24;;;;;;;10.10;4.25;;;10.70;92.40;;;;;;6132007;22;93298;-73
2022/02/18 10:53:15;;;;;;;12.63;4.60;;;10.80;92.20;;;;;;6132104;22;93312;-74
2022/02/18 10:55:55;;;;;;;20.13;4.60;;;10.80;92.20;;;;;;6132465;22;93015;-75
2022/02/18 10:58:27;;;;;;;15.45;4.18;;;10.90;92.20;;;;;;6107591;22;92837;-73
2022/02/18 11:01:02;;;;;;;9.70;4.05;;;10.90;92.20;;;;;;6132510;22;92396;-73
2022/02/18 11:03:30;;;;;;;10.43;3.83;;;11.00;92.10;;;;;;6130146;22;95983;-74
2022/02/18 11:06:14;;;;;;;9.52;4.18;;;11.10;92.00;;;;;;6124049;22;100246;-74
2022/02/18 11:08:48;;;;;;;14.88;4.47;;;11.20;92.00;;;;;;6107029;22;92489;-76
2022/02/18 11:11:16;;;;;;;8.77;4.40;;;11.20;91.90;;;;;;6130762;22;92823;-74
2022/02/18 11:13:44;;;;;;;10.23;4.15;;;11.20;91.90;;;;;;6106129;22;95966;-74
2022/02/18 11:16:15;;;;;;;12.65;4.25;;;11.30;92.00;;;;;;6132822;22;93143;-73
2022/02/18 11:18:43;;;;;;;11.10;4.47;;;11.30;91.90;;;;;;6132266;22;92758;-74
2022/02/18 11:21:14;;;;;;;12.45;4.28;;;11.40;92.00;;;;;;6133595;22;91775;-74
2022/02/18 11:23:44;;;;;;;34.95;15.02;;;11.40;91.90;;;;;;6132394;22;94245;-74
2022/02/18 11:26:13;;;;;;;8.95;4.22;;;11.50;92.00;;;;;;6123016;22;93522;-74
2022/02/18 11:28:42;;;;;;;7.97;3.67;;;11.50;91.80;;;;;;6085554;22;96423;-72
2022/02/18 11:31:37;;;;;;;11.68;4.05;;;11.50;91.80;;;;;;6090627;22;96849;-73
2022/02/18 11:34:28;;;;;;;8.07;3.85;;;11.60;92.00;;;;;;6103242;22;96034;-74
2022/02/18 11:37:16;;;;;;;5.35;3.10;;;11.60;93.90;;;;;;6133644;22;92954;-74
2022/02/18 11:40:01;;;;;;;7.32;3.40;;;11.60;92.50;;;;;;6106849;22;93370;-73
2022/02/18 11:42:39;;;;;;;8.60;4.57;;;11.60;92.30;;;;;;6132802;22;92436;-73
2022/02/18 11:45:26;;;;;;;9.48;4.30;;;11.70;92.30;;;;;;6106282;22;95739;-73
2022/02/18 11:47:53;;;;;;;12.20;4.97;;;11.70;92.40;;;;;;6133472;22;92826;-74
2022/02/18 11:50:27;;;;;;;9.00;3.95;;;11.70;92.40;;;;;;6132762;22;92367;-73
2022/02/18 11:52:54;;;;;;;6.55;3.67;;;11.70;92.40;;;;;;6133570;22;93390;-74
2022/02/18 11:55:26;;;;;;;5.63;3.40;;;11.70;92.40;;;;;;6130037;22;95635;-73
2022/02/18 11:58:06;;;;;;;6.63;4.25;;;11.70;92.40;;;;;;6132864;22;95300;-74
2022/02/18 12:00:50;;;;;;;6.10;3.42;;;11.70;92.60;;;;;;6133143;22;93108;-72
2022/02/18 12:03:20;;;;;;;4.80;3.80;;;11.80;92.60;;;;;;6132426;22;92477;-76
2022/02/18 12:06:09;;;;;;;5.35;3.42;;;11.70;92.40;;;;;;6132613;22;92936;-76
2022/02/18 12:08:57;;;;;;;7.85;3.88;;;11.80;92.30;;;;;;6133050;22;92922;-76
2022/02/18 12:11:26;;;;;;;5.65;4.30;;;11.90;92.30;;;;;;6122070;22;92817;-73
2022/02/18 12:13:56;;;;;;;4.28;3.88;;;11.90;92.30;;;;;;6128670;22;92130;-73
2022/02/18 12:16:27;;;;;;;4.88;3.33;;;12.00;92.20;;;;;;6128461;22;94421;-73
2022/02/18 12:19:14;;;;;;;4.72;3.17;;;12.10;92.10;;;;;;6103704;22;95465;-73
2022/02/18 12:21:56;;;;;;;3.28;2.97;;;12.20;92.00;;;;;;6154037;22;94791;-73
2022/02/18 12:24:33;;;;;;;3.20;2.83;;;12.20;91.90;;;;;;6154859;22;92461;-73
2022/02/18 12:27:22;;;;;;;3.50;3.20;;;12.30;91.90;;;;;;6128859;22;93008;-73
2022/02/18 12:29:55;;;;;;;3.83;3.33;;;12.40;91.80;;;;;;6155067;22;92831;-73
2022/02/18 12:32:23;;;;;;;2.95;2.67;;;12.40;91.80;;;;;;6155028;22;92389;-73
2022/02/18 12:35:27;;;;;;;3.50;3.20;;;12.40;91.70;;;;;;6103486;22;104210;-73
2022/02/18 12:37:59;;;;;;;4.57;3.30;;;12.50;91.70;;;;;;6123394;22;94245;-73
2022/02/18 12:40:31;;;;;;;3.05;2.75;;;12.50;91.70;;;;;;6154856;22;92897;-73
2022/02/18 12:43:04;;;;;;;3.28;2.67;;;12.50;91.70;;;;;;6155106;22;92415;-73
2022/02/18 12:45:54;;;;;;;2.93;2.73;;;12.60;91.50;;;;;;6127823;22;92485;-73
2022/02/18 12:48:42;;;;;;;4.47;3.00;;;12.60;91.50;;;;;;6126333;22;98944;-73
2022/02/18 12:51:12;;;;;;;2.38;2.28;;;12.70;91.50;;;;;;6154686;22;95157;-73
2022/02/18 12:53:41;;;;;;;2.53;2.33;;;12.60;91.50;;;;;;6128491;22;92312;-73
2022/02/18 12:56:22;;;;;;;2.67;2.47;;;12.70;91.40;;;;;;6128245;22;92830;-73
2022/02/18 12:58:59;;;;;;;3.42;3.17;;;12.80;91.40;;;;;;6128447;22;93165;-73
2022/02/18 13:01:28;;;;;;;2.50;2.30;;;12.80;91.40;;;;;;6153824;22;92988;-73